Time,TemperatureF,DewpointF,PressureIn,WindDirection,WindDirectionDegrees,WindSpeedMPH,WindSpeedGustMPH,Humidity,HourlyPrecipIn,Conditions,Clouds,dailyrainin,SolarRadiationWatts/m^2,SoftwareType,DateUTC
2015-08-04 00:05:00,57.8,52.0,29.88,WNW,298,0.0,0.0,81,0.00,,,0.00,0,Wunderground v.1.15,2015-08-04 05:05:00,
2015-08-04 00:10:00,57.5,51.7,29.88,WNW,298,0.0,0.0,81,0.00,,,0.00,0,Wunderground v.1.15,2015-08-04 05:10:00,
2015-08-04 00:15:00,57.4,51.6,29.88,WNW,298,0.0,0.0,81,0.00,,,0.00,0,Wunderground v.1.15,2015-08-04 05:15:00,
2015-08-04 00:21:00,57.2,51.4,29.88,WNW,298,0.0,0.0,81,0.00,,,0.00,0,Wunderground v.1.15,2015-08-04 05:21:00,
2015-08-04 00:26:00,57.1,51.3,29.88,WNW,298,0.0,0.0,81,0.00,,,0.00,0,Wunderground v.1.15,2015-08-04 05:26:00,
2015-08-04 00:31:00,56.9,51.1,29.88,WNW,298,0.0,0.0,81,0.00,,,0.00,0,Wunderground v.1.15,2015-08-04 05:31:00,
2015-08-04 00:37:00,56.8,51.4,29.88,WNW,298,0.0,0.0,82,0.00,,,0.00,0,Wunderground v.1.15,2015-08-04 05:37:00,
2015-08-04 00:42:00,56.6,51.2,29.88,WNW,298,0.0,0.0,82,0.00,,,0.00,0,Wunderground v.1.15,2015-08-04 05:42:00,
2015-08-04 00:47:00,56.5,51.4,29.88,WNW,298,0.0,0.0,83,0.00,,,0.00,0,Wunderground v.1.15,2015-08-04 05:47:00,
2015-08-04 00:52:00,56.4,51.3,29.88,WNW,298,0.0,0.0,83,0.00,,,0.00,0,Wunderground v.1.15,2015-08-04 05:52:00,
2015-08-04 00:58:00,56.4,51.6,29.88,WNW,298,0.0,0.0,84,0.00,,,0.00,0,Wunderground v.1.15,2015-08-04 05:58:00,
2015-08-04 01:03:00,56.2,51.1,29.88,WNW,298,0.0,0.0,83,0.00,,,0.00,0,Wunderground v.1.15,2015-08-04 06:03:00,
2015-08-04 01:09:00,56.0,50.9,29.88,WNW,298,0.0,0.0,83,0.00,,,0.00,0,Wunderground v.1.15,2015-08-04 06:09:00,
2015-08-04 01:14:00,55.9,51.1,29.88,WNW,298,0.0,0.0,84,0.00,,,0.00,0,Wunderground v.1.15,2015-08-04 06:14:00,
2015-08-04 01:19:00,55.8,51.0,29.88,WNW,298,0.0,0.0,84,0.00,,,0.00,0,Wunderground v.1.15,2015-08-04 06:19:00,
2015-08-04 01:24:00,55.6,50.5,29.88,WNW,298,0.0,0.0,83,0.00,,,0.00,0,Wunderground v.1.15,2015-08-04 06:24:00,
2015-08-04 01:30:00,55.4,50.6,29.88,WNW,298,0.0,0.0,84,0.00,,,0.00,0,Wunderground v.1.15,2015-08-04 06:30:00,
2015-08-04 01:35:00,55.4,51.0,29.88,WNW,298,0.0,0.0,85,0.00,,,0.00,0,Wunderground v.1.15,2015-08-04 06:35:00,
2015-08-04 01:40:00,55.2,50.8,29.88,WNW,298,0.0,0.0,85,0.00,,,0.00,0,Wunderground v.1.15,2015-08-04 06:40:00,
2015-08-04 01:45:00,55.2,51.1,29.88,WNW,298,0.0,0.0,86,0.00,,,0.00,0,Wunderground v.1.15,2015-08-04 06:45:00,
2015-08-04 01:51:00,55.1,51.0,29.88,WNW,298,0.0,0.0,86,0.00,,,0.00,0,Wunderground v.1.15,2015-08-04 06:51:00,
2015-08-04 01:56:00,55.1,51.0,29.88,WNW,298,0.0,0.0,86,0.00,,,0.00,0,Wunderground v.1.15,2015-08-04 06:56:00,
2015-08-04 02:01:00,55.0,50.9,29.88,WNW,298,0.0,0.0,86,0.00,,,0.00,0,Wunderground v.1.15,2015-08-04 07:01:00,
2015-08-04 02:06:00,54.8,51.0,29.88,WNW,298,0.0,0.0,87,0.00,,,0.00,0,Wunderground v.1.15,2015-08-04 07:06:00,
2015-08-04 02:11:00,54.7,50.9,29.88,WNW,298,0.0,0.0,87,0.00,,,0.00,0,Wunderground v.1.15,2015-08-04 07:11:00,
2015-08-04 02:16:00,54.6,50.8,29.88,WNW,298,0.0,0.0,87,0.00,,,0.00,0,Wunderground v.1.15,2015-08-04 07:16:00,
2015-08-04 02:21:00,54.5,50.7,29.88,WNW,298,0.0,0.0,87,0.00,,,0.00,0,Wunderground v.1.15,2015-08-04 07:21:00,
2015-08-04 02:26:00,54.4,50.3,29.88,WNW,298,0.0,0.0,86,0.00,,,0.00,0,Wunderground v.1.15,2015-08-04 07:26:00,
2015-08-04 02:31:00,54.4,50.9,29.88,WNW,298,0.0,0.0,88,0.00,,,0.00,0,Wunderground v.1.15,2015-08-04 07:31:00,
2015-08-04 02:36:00,54.3,50.5,29.88,WNW,298,0.0,0.0,87,0.00,,,0.00,0,Wunderground v.1.15,2015-08-04 07:36:00,
2015-08-04 02:41:00,54.2,50.4,29.88,WNW,298,0.0,0.0,87,0.00,,,0.00,0,Wunderground v.1.15,2015-08-04 07:41:00,
2015-08-04 02:46:00,54.0,50.2,29.88,WNW,298,0.0,0.0,87,0.00,,,0.00,0,Wunderground v.1.15,2015-08-04 07:46:00,
2015-08-04 02:51:00,53.9,50.1,29.88,WNW,298,0.0,0.0,87,0.00,,,0.00,0,Wunderground v.1.15,2015-08-04 07:51:00,
2015-08-04 02:56:00,53.8,50.0,29.88,WNW,298,0.0,0.0,87,0.00,,,0.00,0,Wunderground v.1.15,2015-08-04 07:56:00,
2015-08-04 03:01:00,53.8,50.3,29.88,WNW,298,0.0,0.0,88,0.00,,,0.00,0,Wunderground v.1.15,2015-08-04 08:01:00,
2015-08-04 03:06:00,53.9,50.7,29.88,WNW,298,0.0,0.0,89,0.00,,,0.00,0,Wunderground v.1.15,2015-08-04 08:06:00,
2015-08-04 03:12:00,53.9,50.7,29.88,WNW,298,0.0,0.0,89,0.00,,,0.00,0,Wunderground v.1.15,2015-08-04 08:12:00,
2015-08-04 03:17:00,53.9,50.7,29.88,WNW,298,0.0,0.0,89,0.00,,,0.00,0,Wunderground v.1.15,2015-08-04 08:17:00,
2015-08-04 03:22:00,53.9,50.7,29.88,WNW,298,0.0,0.0,89,0.00,,,0.00,0,Wunderground v.1.15,2015-08-04 08:22:00,
2015-08-04 03:27:00,54.0,50.8,29.88,WNW,298,0.0,0.0,89,0.00,,,0.00,0,Wunderground v.1.15,2015-08-04 08:27:00,
2015-08-04 03:32:00,53.9,50.7,29.88,WNW,298,0.0,0.0,89,0.00,,,0.00,0,Wunderground v.1.15,2015-08-04 08:32:00,
2015-08-04 03:37:00,53.7,50.5,29.89,WNW,298,0.0,0.0,89,0.00,,,0.00,0,Wunderground v.1.15,2015-08-04 08:37:00,
2015-08-04 03:42:00,53.7,50.5,29.88,WNW,298,0.0,0.0,89,0.00,,,0.00,0,Wunderground v.1.15,2015-08-04 08:42:00,
2015-08-04 03:47:00,53.6,50.4,29.88,WNW,298,0.0,0.0,89,0.00,,,0.00,0,Wunderground v.1.15,2015-08-04 08:47:00,
2015-08-04 03:52:00,53.4,50.2,29.88,WNW,298,0.0,0.0,89,0.00,,,0.00,0,Wunderground v.1.15,2015-08-04 08:52:00,
2015-08-04 03:57:00,53.2,49.7,29.88,WNW,298,0.0,0.0,88,0.00,,,0.00,0,Wunderground v.1.15,2015-08-04 08:57:00,
2015-08-04 04:02:00,53.1,49.9,29.88,WNW,298,0.0,0.0,89,0.00,,,0.00,0,Wunderground v.1.15,2015-08-04 09:02:00,
2015-08-04 04:07:00,53.1,49.9,29.88,WNW,298,0.0,0.0,89,0.00,,,0.00,0,Wunderground v.1.15,2015-08-04 09:07:00,
2015-08-04 04:12:00,53.1,49.9,29.89,WNW,298,0.0,0.0,89,0.00,,,0.00,0,Wunderground v.1.15,2015-08-04 09:12:00,
2015-08-04 04:22:00,52.9,49.7,29.89,WNW,298,0.0,0.0,89,0.00,,,0.00,0,Wunderground v.1.15,2015-08-04 09:22:00,
2015-08-04 04:27:00,52.8,49.6,29.89,WNW,298,0.0,0.0,89,0.00,,,0.00,0,Wunderground v.1.15,2015-08-04 09:27:00,
2015-08-04 04:32:00,52.6,49.1,29.89,WNW,298,0.0,0.0,88,0.00,,,0.00,0,Wunderground v.1.15,2015-08-04 09:32:00,
2015-08-04 04:37:00,52.5,49.4,29.88,WNW,298,0.0,0.0,89,0.00,,,0.00,0,Wunderground v.1.15,2015-08-04 09:37:00,
2015-08-04 04:42:00,52.4,49.3,29.88,WNW,298,0.0,0.0,89,0.00,,,0.00,0,Wunderground v.1.15,2015-08-04 09:42:00,
2015-08-04 04:47:00,52.4,49.3,29.88,WNW,298,0.0,0.0,89,0.00,,,0.00,0,Wunderground v.1.15,2015-08-04 09:47:00,
2015-08-04 04:52:00,52.3,49.2,29.89,WNW,298,0.0,0.0,89,0.00,,,0.00,0,Wunderground v.1.15,2015-08-04 09:52:00,
2015-08-04 04:57:00,52.4,49.6,29.88,WNW,298,0.0,0.0,90,0.00,,,0.00,0,Wunderground v.1.15,2015-08-04 09:57:00,
2015-08-04 05:02:00,52.6,50.0,29.88,WNW,298,0.0,0.0,91,0.00,,,0.00,0,Wunderground v.1.15,2015-08-04 10:02:00,
2015-08-04 05:07:00,52.8,50.2,29.88,WNW,298,0.0,0.0,91,0.00,,,0.00,0,Wunderground v.1.15,2015-08-04 10:07:00,
2015-08-04 05:12:00,52.8,50.2,29.88,WNW,298,0.0,0.0,91,0.00,,,0.00,0,Wunderground v.1.15,2015-08-04 10:12:00,
2015-08-04 05:18:00,52.7,49.8,29.88,WNW,298,0.0,0.0,90,0.00,,,0.00,0,Wunderground v.1.15,2015-08-04 10:18:00,
2015-08-04 05:23:00,52.7,50.1,29.88,WNW,298,0.0,0.0,91,0.00,,,0.00,0,Wunderground v.1.15,2015-08-04 10:23:00,
2015-08-04 05:28:00,52.7,50.1,29.88,WNW,298,0.0,0.0,91,0.00,,,0.00,0,Wunderground v.1.15,2015-08-04 10:28:00,
2015-08-04 05:33:00,52.7,50.1,29.89,WNW,298,0.0,0.0,91,0.00,,,0.00,0,Wunderground v.1.15,2015-08-04 10:33:00,
2015-08-04 05:38:00,52.8,50.5,29.88,WNW,298,0.0,0.0,92,0.00,,,0.00,0,Wunderground v.1.15,2015-08-04 10:38:00,
2015-08-04 05:43:00,52.8,50.2,29.89,WNW,298,2.0,2.0,91,0.00,,,0.00,0,Wunderground v.1.15,2015-08-04 10:43:00,
2015-08-04 05:48:00,52.8,50.2,29.89,WNW,298,0.0,2.0,91,0.00,,,0.00,0,Wunderground v.1.15,2015-08-04 10:48:00,
2015-08-04 05:53:00,52.7,50.1,29.90,WNW,298,0.0,0.0,91,0.00,,,0.00,5,Wunderground v.1.15,2015-08-04 10:53:00,
2015-08-04 05:58:00,52.6,50.0,29.90,WNW,298,0.0,0.0,91,0.00,,,0.00,7,Wunderground v.1.15,2015-08-04 10:58:00,
2015-08-04 06:03:00,52.6,50.0,29.90,WNW,298,0.0,0.0,91,0.00,,,0.00,12,Wunderground v.1.15,2015-08-04 11:03:00,
2015-08-04 06:08:00,52.6,50.0,29.90,WNW,298,0.0,0.0,91,0.00,,,0.00,18,Wunderground v.1.15,2015-08-04 11:08:00,
2015-08-04 06:13:00,52.7,50.1,29.91,WNW,298,0.0,0.0,91,0.00,,,0.00,26,Wunderground v.1.15,2015-08-04 11:13:00,
2015-08-04 06:18:00,52.8,50.5,29.91,WNW,298,0.0,0.0,92,0.00,,,0.00,35,Wunderground v.1.15,2015-08-04 11:18:00,
2015-08-04 06:23:00,53.2,50.9,29.91,WNW,298,0.0,0.0,92,0.00,,,0.00,46,Wunderground v.1.15,2015-08-04 11:23:00,
2015-08-04 06:28:00,53.5,51.2,29.92,WNW,298,0.0,0.0,92,0.00,,,0.00,46,Wunderground v.1.15,2015-08-04 11:28:00,
2015-08-04 06:33:00,53.9,51.9,29.92,WNW,298,0.0,0.0,93,0.00,,,0.00,72,Wunderground v.1.15,2015-08-04 11:33:00,
2015-08-04 06:38:00,54.7,53.0,29.92,WNW,298,0.0,2.0,94,0.00,,,0.00,88,Wunderground v.1.15,2015-08-04 11:38:00,
2015-08-04 06:43:00,55.8,54.1,29.92,WNW,298,0.0,3.0,94,0.00,,,0.00,104,Wunderground v.1.15,2015-08-04 11:43:00,
2015-08-04 06:53:00,57.7,55.1,29.92,WSW,243,2.0,3.0,91,0.00,,,0.00,139,Wunderground v.1.15,2015-08-04 11:53:00,
2015-08-04 06:58:00,58.3,55.4,29.92,WSW,244,3.0,3.0,90,0.00,,,0.00,153,Wunderground v.1.15,2015-08-04 11:58:00,
2015-08-04 07:03:00,58.9,55.7,29.92,WSW,244,0.0,3.0,89,0.00,,,0.00,169,Wunderground v.1.15,2015-08-04 12:03:00,
2015-08-04 07:08:00,59.5,55.9,29.92,WSW,244,0.0,3.0,88,0.00,,,0.00,153,Wunderground v.1.15,2015-08-04 12:08:00,
2015-08-04 07:13:00,59.9,56.0,29.92,WNW,296,4.0,5.0,87,0.00,,,0.00,202,Wunderground v.1.15,2015-08-04 12:13:00,
2015-08-04 07:18:00,60.4,56.2,29.93,NW,308,2.0,6.0,86,0.00,,,0.00,218,Wunderground v.1.15,2015-08-04 12:18:00,
2015-08-04 07:24:00,60.9,56.7,29.93,NW,306,4.0,5.0,86,0.00,,,0.00,243,Wunderground v.1.15,2015-08-04 12:24:00,
2015-08-04 07:29:00,61.3,56.8,29.93,WNW,298,3.0,5.0,85,0.00,,,0.00,269,Wunderground v.1.15,2015-08-04 12:29:00,
2015-08-04 07:34:00,61.7,57.1,29.93,West,259,3.0,4.0,85,0.00,,,0.00,262,Wunderground v.1.15,2015-08-04 12:34:00,
2015-08-04 07:39:00,62.1,57.2,29.94,WSW,240,4.0,7.0,84,0.00,,,0.00,308,Wunderground v.1.15,2015-08-04 12:39:00,
2015-08-04 07:44:00,62.5,57.6,29.94,WSW,244,0.0,3.0,84,0.00,,,0.00,299,Wunderground v.1.15,2015-08-04 12:44:00,
2015-08-04 07:49:00,62.8,57.6,29.94,WSW,243,1.0,4.0,83,0.00,,,0.00,325,Wunderground v.1.15,2015-08-04 12:49:00,
2015-08-04 07:54:00,63.2,57.9,29.93,WNW,286,2.0,3.0,83,0.00,,,0.00,327,Wunderground v.1.15,2015-08-04 12:54:00,
2015-08-04 07:59:00,63.6,58.0,29.93,NW,305,2.0,6.0,82,0.00,,,0.00,353,Wunderground v.1.15,2015-08-04 12:59:00,
2015-08-04 08:04:00,64.1,58.1,29.94,NW,307,2.0,8.0,81,0.00,,,0.00,376,Wunderground v.1.15,2015-08-04 13:04:00,
2015-08-04 08:09:00,64.5,58.5,29.94,WNW,298,1.0,8.0,81,0.00,,,0.00,392,Wunderground v.1.15,2015-08-04 13:09:00,
2015-08-04 08:14:00,64.9,58.6,29.94,NW,308,5.0,7.0,80,0.00,,,0.00,408,Wunderground v.1.15,2015-08-04 13:14:00,
2015-08-04 08:19:00,65.3,58.6,29.94,NW,306,2.0,8.0,79,0.00,,,0.00,425,Wunderground v.1.15,2015-08-04 13:19:00,
2015-08-04 08:24:00,65.8,59.1,29.94,West,259,0.0,7.0,79,0.00,,,0.00,443,Wunderground v.1.15,2015-08-04 13:24:00,
2015-08-04 08:29:00,66.1,59.0,29.95,WNW,292,3.0,7.0,78,0.00,,,0.00,461,Wunderground v.1.15,2015-08-04 13:29:00,
2015-08-04 08:34:00,66.4,59.3,29.95,WNW,292,1.0,4.0,78,0.00,,,0.00,478,Wunderground v.1.15,2015-08-04 13:34:00,
2015-08-04 08:39:00,66.8,59.0,29.95,WNW,296,4.0,7.0,76,0.00,,,0.00,499,Wunderground v.1.15,2015-08-04 13:39:00,
2015-08-04 08:44:00,67.3,58.7,29.95,NW,305,3.0,8.0,74,0.00,,,0.00,513,Wunderground v.1.15,2015-08-04 13:44:00,
2015-08-04 08:49:00,67.7,59.1,29.95,WNW,288,5.0,8.0,74,0.00,,,0.00,520,Wunderground v.1.15,2015-08-04 13:49:00,
2015-08-04 08:54:00,68.1,59.1,29.95,NW,304,4.0,7.0,73,0.00,,,0.00,534,Wunderground v.1.15,2015-08-04 13:54:00,
2015-08-04 08:59:00,68.5,59.1,29.95,NW,312,2.0,7.0,72,0.00,,,0.00,536,Wunderground v.1.15,2015-08-04 13:59:00,
2015-08-04 09:04:00,68.8,59.4,29.95,WNW,288,0.0,4.0,72,0.00,,,0.00,568,Wunderground v.1.15,2015-08-04 14:04:00,
2015-08-04 09:09:00,69.3,59.9,29.95,WSW,258,1.0,4.0,72,0.00,,,0.00,580,Wunderground v.1.15,2015-08-04 14:09:00,
2015-08-04 09:14:00,69.7,59.5,29.95,NW,304,2.0,10.0,70,0.00,,,0.00,596,Wunderground v.1.15,2015-08-04 14:14:00,
2015-08-04 09:19:00,69.9,59.7,29.95,WNW,288,1.0,10.0,70,0.00,,,0.00,612,Wunderground v.1.15,2015-08-04 14:19:00,
2015-08-04 09:24:00,70.3,60.1,29.96,WSW,238,4.0,6.0,70,0.00,,,0.00,631,Wunderground v.1.15,2015-08-04 14:24:00,
2015-08-04 09:29:00,70.5,59.8,29.96,West,281,1.0,6.0,69,0.00,,,0.00,571,Wunderground v.1.15,2015-08-04 14:29:00,
2015-08-04 09:34:00,70.7,59.6,29.96,SW,230,2.0,7.0,68,0.00,,,0.00,642,Wunderground v.1.15,2015-08-04 14:34:00,
2015-08-04 09:39:00,70.8,59.3,29.96,NW,308,1.0,8.0,67,0.00,,,0.00,547,Wunderground v.1.15,2015-08-04 14:39:00,
2015-08-04 09:44:00,71.2,59.3,29.96,NW,315,8.0,8.0,66,0.00,,,0.00,640,Wunderground v.1.15,2015-08-04 14:44:00,
2015-08-04 09:49:00,71.5,59.5,29.96,West,276,7.0,9.0,66,0.00,,,0.00,708,Wunderground v.1.15,2015-08-04 14:49:00,
2015-08-04 09:54:00,71.7,59.7,29.96,WSW,238,0.0,6.0,66,0.00,,,0.00,624,Wunderground v.1.15,2015-08-04 14:54:00,
2015-08-04 09:59:00,71.9,58.6,29.96,WNW,289,4.0,8.0,63,0.00,,,0.00,731,Wunderground v.1.15,2015-08-04 14:59:00,
2015-08-04 10:04:00,72.1,58.8,29.96,NW,315,1.0,6.0,63,0.00,,,0.00,754,Wunderground v.1.15,2015-08-04 15:04:00,
2015-08-04 10:09:00,72.3,58.5,29.96,West,269,3.0,9.0,62,0.00,,,0.00,738,Wunderground v.1.15,2015-08-04 15:09:00,
2015-08-04 10:14:00,72.5,58.7,29.96,NW,304,3.0,10.0,62,0.00,,,0.00,747,Wunderground v.1.15,2015-08-04 15:14:00,
2015-08-04 10:19:00,72.7,58.9,29.96,West,261,6.0,10.0,62,0.00,,,0.00,777,Wunderground v.1.15,2015-08-04 15:19:00,
2015-08-04 10:24:00,72.8,57.6,29.96,NW,306,3.0,10.0,59,0.00,,,0.00,770,Wunderground v.1.15,2015-08-04 15:24:00,
2015-08-04 10:29:00,72.9,58.2,29.96,North,350,1.0,11.0,60,0.00,,,0.00,816,Wunderground v.1.15,2015-08-04 15:29:00,
2015-08-04 10:34:00,73.1,57.9,29.96,WNW,298,6.0,9.0,59,0.00,,,0.00,705,Wunderground v.1.15,2015-08-04 15:34:00,
2015-08-04 10:39:00,73.3,58.6,29.96,WNW,293,5.0,9.0,60,0.00,,,0.00,805,Wunderground v.1.15,2015-08-04 15:39:00,
2015-08-04 10:44:00,73.3,57.6,29.96,NW,319,8.0,8.0,58,0.00,,,0.00,789,Wunderground v.1.15,2015-08-04 15:44:00,
2015-08-04 10:49:00,73.5,58.8,29.96,WNW,302,6.0,9.0,60,0.00,,,0.00,858,Wunderground v.1.15,2015-08-04 15:49:00,
2015-08-04 10:54:00,73.8,58.6,29.96,NW,318,8.0,9.0,59,0.00,,,0.00,738,Wunderground v.1.15,2015-08-04 15:54:00,
2015-08-04 10:59:00,74.0,57.8,29.96,NW,310,3.0,9.0,57,0.00,,,0.00,826,Wunderground v.1.15,2015-08-04 15:59:00,
2015-08-04 11:05:00,74.0,57.8,29.96,NW,323,4.0,12.0,57,0.00,,,0.00,729,Wunderground v.1.15,2015-08-04 16:05:00,
2015-08-04 11:10:00,74.1,57.4,29.96,West,265,7.0,7.0,56,0.00,,,0.00,740,Wunderground v.1.15,2015-08-04 16:10:00,
2015-08-04 11:15:00,74.2,58.0,29.96,West,265,2.0,8.0,57,0.00,,,0.00,807,Wunderground v.1.15,2015-08-04 16:15:00,
2015-08-04 11:20:00,74.3,57.1,29.96,NW,307,3.0,4.0,55,0.00,,,0.00,833,Wunderground v.1.15,2015-08-04 16:20:00,
2015-08-04 11:25:00,74.6,57.4,29.95,NW,314,10.0,10.0,55,0.00,,,0.00,789,Wunderground v.1.15,2015-08-04 16:25:00,
2015-08-04 11:30:00,74.8,57.0,29.96,NW,317,11.0,11.0,54,0.00,,,0.00,657,Wunderground v.1.15,2015-08-04 16:30:00,
2015-08-04 11:35:00,74.8,56.5,29.96,NW,310,6.0,11.0,53,0.00,,,0.00,809,Wunderground v.1.15,2015-08-04 16:35:00,
2015-08-04 11:40:00,74.8,57.0,29.96,WNW,301,4.0,5.0,54,0.00,,,0.00,891,Wunderground v.1.15,2015-08-04 16:40:00,
2015-08-04 11:45:00,75.1,57.3,29.95,NW,304,4.0,9.0,54,0.00,,,0.00,707,Wunderground v.1.15,2015-08-04 16:45:00,
2015-08-04 11:50:00,75.4,57.1,29.95,West,277,5.0,5.0,53,0.00,,,0.00,882,Wunderground v.1.15,2015-08-04 16:50:00,
2015-08-04 11:55:00,75.3,55.9,29.95,NW,310,8.0,12.0,51,0.00,,,0.00,993,Wunderground v.1.15,2015-08-04 16:55:00,
2015-08-04 12:00:00,75.5,56.1,29.96,West,275,3.0,5.0,51,0.00,,,0.00,807,Wunderground v.1.15,2015-08-04 17:00:00,
2015-08-04 12:05:00,75.5,55.6,29.95,WNW,291,3.0,8.0,50,0.00,,,0.00,803,Wunderground v.1.15,2015-08-04 17:05:00,
2015-08-04 12:10:00,75.5,55.6,29.95,WSW,240,3.0,9.0,50,0.00,,,0.00,789,Wunderground v.1.15,2015-08-04 17:10:00,
2015-08-04 12:15:00,75.6,55.6,29.95,WSW,256,3.0,12.0,50,0.00,,,0.00,1032,Wunderground v.1.15,2015-08-04 17:15:00,
2015-08-04 12:20:00,75.8,55.8,29.95,West,281,4.0,5.0,50,0.00,,,0.00,840,Wunderground v.1.15,2015-08-04 17:20:00,
2015-08-04 12:25:00,75.8,56.4,29.95,NW,310,8.0,11.0,51,0.00,,,0.00,847,Wunderground v.1.15,2015-08-04 17:25:00,
2015-08-04 12:30:00,75.9,54.8,29.95,WNW,282,2.0,5.0,48,0.00,,,0.00,745,Wunderground v.1.15,2015-08-04 17:30:00,
2015-08-04 12:35:00,76.2,55.1,29.95,NW,310,4.0,17.0,48,0.00,,,0.00,471,Wunderground v.1.15,2015-08-04 17:35:00,
2015-08-04 12:40:00,76.1,56.1,29.95,NW,317,6.0,6.0,50,0.00,,,0.00,775,Wunderground v.1.15,2015-08-04 17:40:00,
2015-08-04 12:45:00,76.0,54.9,29.96,NW,323,13.0,14.0,48,0.00,,,0.00,833,Wunderground v.1.15,2015-08-04 17:45:00,
2015-08-04 12:50:00,75.7,55.7,29.96,NW,319,6.0,7.0,50,0.00,,,0.00,918,Wunderground v.1.15,2015-08-04 17:50:00,
2015-08-04 12:55:00,75.7,56.3,29.96,NW,315,3.0,15.0,51,0.00,,,0.00,1028,Wunderground v.1.15,2015-08-04 17:55:00,
2015-08-04 13:00:00,76.1,55.5,29.96,WNW,298,3.0,8.0,49,0.00,,,0.00,976,Wunderground v.1.15,2015-08-04 18:00:00,
2015-08-04 13:06:00,76.2,56.2,29.96,WNW,300,4.0,9.0,50,0.00,,,0.00,722,Wunderground v.1.15,2015-08-04 18:06:00,
2015-08-04 13:11:00,76.3,55.2,29.96,West,279,12.0,12.0,48,0.00,,,0.00,703,Wunderground v.1.15,2015-08-04 18:11:00,
2015-08-04 13:16:00,76.2,55.6,29.96,WNW,295,3.0,14.0,49,0.00,,,0.00,944,Wunderground v.1.15,2015-08-04 18:16:00,
2015-08-04 13:21:00,76.4,56.4,29.96,West,261,2.0,4.0,50,0.00,,,0.00,800,Wunderground v.1.15,2015-08-04 18:21:00,
2015-08-04 13:26:00,76.8,56.8,29.96,WSW,257,3.0,9.0,50,0.00,,,0.00,800,Wunderground v.1.15,2015-08-04 18:26:00,
2015-08-04 13:31:00,76.9,57.9,29.95,NW,317,9.0,9.0,52,0.00,,,0.00,724,Wunderground v.1.15,2015-08-04 18:31:00,
2015-08-04 13:36:00,76.7,57.7,29.96,West,274,1.0,9.0,52,0.00,,,0.00,591,Wunderground v.1.15,2015-08-04 18:36:00,
2015-08-04 13:41:00,76.7,56.1,29.96,WNW,299,4.0,13.0,49,0.00,,,0.00,782,Wunderground v.1.15,2015-08-04 18:41:00,
2015-08-04 13:46:00,76.6,56.6,29.96,NW,324,0.0,13.0,50,0.00,,,0.00,849,Wunderground v.1.15,2015-08-04 18:46:00,
2015-08-04 13:51:00,76.8,57.3,29.96,West,275,4.0,7.0,51,0.00,,,0.00,974,Wunderground v.1.15,2015-08-04 18:51:00,
2015-08-04 13:56:00,76.9,56.3,29.95,WSW,243,3.0,11.0,49,0.00,,,0.00,838,Wunderground v.1.15,2015-08-04 18:56:00,
2015-08-04 14:01:00,76.8,56.8,29.96,NW,321,0.0,7.0,50,0.00,,,0.00,675,Wunderground v.1.15,2015-08-04 19:01:00,
2015-08-04 14:06:00,76.7,56.7,29.96,NW,311,6.0,12.0,50,0.00,,,0.00,763,Wunderground v.1.15,2015-08-04 19:06:00,
2015-08-04 14:11:00,76.8,57.8,29.95,West,276,5.0,5.0,52,0.00,,,0.00,817,Wunderground v.1.15,2015-08-04 19:11:00,
2015-08-04 14:16:00,77.0,58.0,29.95,WNW,301,6.0,8.0,52,0.00,,,0.00,587,Wunderground v.1.15,2015-08-04 19:16:00,
2015-08-04 14:21:00,77.0,56.9,29.95,NW,311,4.0,11.0,50,0.00,,,0.00,645,Wunderground v.1.15,2015-08-04 19:21:00,
2015-08-04 14:26:00,77.0,56.9,29.95,West,271,6.0,11.0,50,0.00,,,0.00,821,Wunderground v.1.15,2015-08-04 19:26:00,
2015-08-04 14:31:00,77.0,56.4,29.95,NW,305,5.0,10.0,49,0.00,,,0.00,782,Wunderground v.1.15,2015-08-04 19:31:00,
2015-08-04 14:36:00,77.1,58.1,29.95,NW,317,1.0,11.0,52,0.00,,,0.00,870,Wunderground v.1.15,2015-08-04 19:36:00,
2015-08-04 14:41:00,77.5,59.0,29.95,WNW,302,7.0,8.0,53,0.00,,,0.00,691,Wunderground v.1.15,2015-08-04 19:41:00,
2015-08-04 14:46:00,77.5,56.3,29.95,NW,306,2.0,13.0,48,0.00,,,0.00,770,Wunderground v.1.15,2015-08-04 19:46:00,
2015-08-04 14:51:00,77.5,56.3,29.95,WNW,298,5.0,7.0,48,0.00,,,0.00,659,Wunderground v.1.15,2015-08-04 19:51:00,
2015-08-04 14:56:00,77.5,56.8,29.95,NW,306,6.0,12.0,49,0.00,,,0.00,635,Wunderground v.1.15,2015-08-04 19:56:00,
2015-08-04 15:01:00,77.5,57.9,29.95,NW,315,2.0,4.0,51,0.00,,,0.00,659,Wunderground v.1.15,2015-08-04 20:01:00,
2015-08-04 15:06:00,77.7,58.7,29.95,North,355,5.0,7.0,52,0.00,,,0.00,652,Wunderground v.1.15,2015-08-04 20:06:00,
2015-08-04 15:11:00,77.9,57.2,29.95,SW,235,2.0,8.0,49,0.00,,,0.00,816,Wunderground v.1.15,2015-08-04 20:11:00,
2015-08-04 15:16:00,78.1,57.4,29.95,NW,316,5.0,8.0,49,0.00,,,0.00,573,Wunderground v.1.15,2015-08-04 20:16:00,
2015-08-04 15:22:00,78.2,58.6,29.95,West,279,4.0,5.0,51,0.00,,,0.00,902,Wunderground v.1.15,2015-08-04 20:22:00,
2015-08-04 15:27:00,78.4,58.2,29.95,West,268,1.0,7.0,50,0.00,,,0.00,237,Wunderground v.1.15,2015-08-04 20:27:00,
2015-08-04 15:32:00,78.0,57.9,29.95,WNW,298,2.0,6.0,50,0.00,,,0.00,288,Wunderground v.1.15,2015-08-04 20:32:00,
2015-08-04 15:37:00,77.7,57.6,29.95,NW,311,2.0,6.0,50,0.00,,,0.00,410,Wunderground v.1.15,2015-08-04 20:37:00,
2015-08-04 15:42:00,77.9,57.8,29.95,NW,320,10.0,10.0,50,0.00,,,0.00,863,Wunderground v.1.15,2015-08-04 20:42:00,
2015-08-04 15:47:00,78.0,57.9,29.94,WNW,289,3.0,10.0,50,0.00,,,0.00,863,Wunderground v.1.15,2015-08-04 20:47:00,
2015-08-04 15:52:00,77.8,58.2,29.94,North,9,2.0,4.0,51,0.00,,,0.00,267,Wunderground v.1.15,2015-08-04 20:52:00,
2015-08-04 15:57:00,77.5,56.8,29.94,NW,304,0.0,6.0,49,0.00,,,0.00,568,Wunderground v.1.15,2015-08-04 20:57:00,
2015-08-04 16:02:00,77.6,57.5,29.94,NW,304,1.0,3.0,50,0.00,,,0.00,766,Wunderground v.1.15,2015-08-04 21:02:00,
2015-08-04 16:07:00,78.0,58.9,29.94,NW,320,1.0,6.0,52,0.00,,,0.00,429,Wunderground v.1.15,2015-08-04 21:07:00,
2015-08-04 16:12:00,78.0,58.4,29.94,NW,316,5.0,6.0,51,0.00,,,0.00,297,Wunderground v.1.15,2015-08-04 21:12:00,
2015-08-04 16:17:00,77.8,58.2,29.94,NW,316,2.0,6.0,51,0.00,,,0.00,318,Wunderground v.1.15,2015-08-04 21:17:00,
2015-08-04 16:22:00,77.8,58.8,29.93,North,5,3.0,5.0,52,0.00,,,0.00,605,Wunderground v.1.15,2015-08-04 21:22:00,
2015-08-04 16:27:00,77.8,58.8,29.93,SW,232,1.0,5.0,52,0.00,,,0.00,557,Wunderground v.1.15,2015-08-04 21:27:00,
2015-08-04 16:32:00,78.0,58.4,29.94,WNW,302,6.0,7.0,51,0.00,,,0.00,462,Wunderground v.1.15,2015-08-04 21:32:00,
2015-08-04 16:37:00,78.0,58.4,29.93,NW,309,6.0,7.0,51,0.00,,,0.00,772,Wunderground v.1.15,2015-08-04 21:37:00,
2015-08-04 16:42:00,77.8,57.1,29.93,WNW,292,4.0,8.0,49,0.00,,,0.00,214,Wunderground v.1.15,2015-08-04 21:42:00,
2015-08-04 16:47:00,77.5,57.9,29.93,WSW,239,1.0,8.0,51,0.00,,,0.00,243,Wunderground v.1.15,2015-08-04 21:47:00,
2015-08-04 16:52:00,77.5,57.9,29.93,West,269,2.0,3.0,51,0.00,,,0.00,656,Wunderground v.1.15,2015-08-04 21:52:00,
2015-08-04 16:57:00,77.7,58.7,29.93,NW,321,1.0,5.0,52,0.00,,,0.00,640,Wunderground v.1.15,2015-08-04 21:57:00,
2015-08-04 17:02:00,78.0,58.4,29.94,WNW,294,2.0,5.0,51,0.00,,,0.00,557,Wunderground v.1.15,2015-08-04 22:02:00,
2015-08-04 17:07:00,78.3,59.8,29.93,West,259,0.0,8.0,53,0.00,,,0.00,559,Wunderground v.1.15,2015-08-04 22:07:00,
2015-08-04 17:12:00,78.6,58.4,29.93,WNW,294,3.0,7.0,50,0.00,,,0.00,352,Wunderground v.1.15,2015-08-04 22:12:00,
2015-08-04 17:17:00,78.6,57.8,29.93,NW,321,4.0,7.0,49,0.00,,,0.00,466,Wunderground v.1.15,2015-08-04 22:17:00,
2015-08-04 17:22:00,78.4,57.7,29.93,NNW,331,1.0,3.0,49,0.00,,,0.00,547,Wunderground v.1.15,2015-08-04 22:22:00,
2015-08-04 17:27:00,78.3,58.7,29.93,NNW,331,0.0,4.0,51,0.00,,,0.00,396,Wunderground v.1.15,2015-08-04 22:27:00,
2015-08-04 17:32:00,78.0,58.4,29.92,West,279,2.0,4.0,51,0.00,,,0.00,195,Wunderground v.1.15,2015-08-04 22:32:00,
2015-08-04 17:37:00,77.8,57.1,29.92,WNW,291,2.0,5.0,49,0.00,,,0.00,457,Wunderground v.1.15,2015-08-04 22:37:00,
2015-08-04 17:42:00,77.8,58.2,29.92,WNW,294,0.0,3.0,51,0.00,,,0.00,366,Wunderground v.1.15,2015-08-04 22:42:00,
2015-08-04 17:47:00,77.9,57.8,29.92,NW,315,2.0,5.0,50,0.00,,,0.00,411,Wunderground v.1.15,2015-08-04 22:47:00,
2015-08-04 17:52:00,77.9,58.3,29.92,NNW,336,2.0,3.0,51,0.00,,,0.00,387,Wunderground v.1.15,2015-08-04 22:52:00,
2015-08-04 17:57:00,77.8,57.7,29.92,NW,321,3.0,7.0,50,0.00,,,0.00,322,Wunderground v.1.15,2015-08-04 22:57:00,
2015-08-04 18:02:00,77.6,57.5,29.92,NW,313,2.0,3.0,50,0.00,,,0.00,341,Wunderground v.1.15,2015-08-04 23:02:00,
2015-08-04 18:07:00,77.4,56.2,29.92,NW,316,5.0,8.0,48,0.00,,,0.00,246,Wunderground v.1.15,2015-08-04 23:07:00,
2015-08-04 18:12:00,77.2,57.1,29.92,West,263,2.0,4.0,50,0.00,,,0.00,232,Wunderground v.1.15,2015-08-04 23:12:00,
2015-08-04 18:17:00,77.1,56.5,29.92,WNW,298,2.0,6.0,49,0.00,,,0.00,213,Wunderground v.1.15,2015-08-04 23:17:00,
2015-08-04 18:22:00,76.9,56.8,29.92,WNW,303,0.0,5.0,50,0.00,,,0.00,109,Wunderground v.1.15,2015-08-04 23:22:00,
2015-08-04 18:27:00,76.7,56.7,29.92,WNW,298,4.0,5.0,50,0.00,,,0.00,70,Wunderground v.1.15,2015-08-04 23:27:00,
2015-08-04 18:32:00,76.6,56.6,29.92,WNW,298,3.0,3.0,50,0.00,,,0.00,79,Wunderground v.1.15,2015-08-04 23:32:00,
2015-08-04 18:37:00,76.4,56.9,29.92,WNW,298,0.0,4.0,51,0.00,,,0.00,74,Wunderground v.1.15,2015-08-04 23:37:00,
2015-08-04 18:42:00,76.3,56.8,29.92,NW,315,3.0,5.0,51,0.00,,,0.00,63,Wunderground v.1.15,2015-08-04 23:42:00,
2015-08-04 18:47:00,76.2,58.3,29.92,NW,315,1.0,5.0,54,0.00,,,0.00,65,Wunderground v.1.15,2015-08-04 23:47:00,
2015-08-04 18:52:00,76.1,57.2,29.92,SW,234,1.0,4.0,52,0.00,,,0.00,63,Wunderground v.1.15,2015-08-04 23:52:00,
2015-08-04 18:57:00,76.0,57.1,29.92,WNW,294,0.0,5.0,52,0.00,,,0.00,46,Wunderground v.1.15,2015-08-04 23:57:00,
2015-08-04 19:02:00,76.0,57.1,29.92,WNW,293,1.0,3.0,52,0.00,,,0.00,127,Wunderground v.1.15,2015-08-05 00:02:00,
2015-08-04 19:07:00,75.9,57.5,29.93,WNW,293,1.0,3.0,53,0.00,,,0.00,86,Wunderground v.1.15,2015-08-05 00:07:00,